Spruce Pine, NC

8:55 PM EST on December 02, 2016 (GMT -0500)
Grassy Creek | | Change Station

Elev 2730 ft 35.87 °N, 82.06 °W | Updated 14 seconds ago

Clear
Clear
41.0 °F
Feels Like 41 °F
N
2.9
Wind Variable Wind from North
Gusts 4.9 mph

Today
High -- | Low -- °F
--% Chance of Precip.
Yesterday
High -- | Low -- °F
Precip. -- in
Pressure 30.22 in
Visibility 10.0 miles
Clouds Clear
Windchill 41 °F
Dew Point 25 °F
Humidity 52%
Rainfall 0.00 in
Snow Depth Not available.
7:21 AM 5:14 PM
Waxing Crescent, 11% visible
METAR KMRN 030145Z AUTO 27003KT 10SM CLR 07/M04 A3022 RMK AO2 T00711037
Pressure 30.22 in
Visibility 10.0 miles
Clouds Clear
Windchill 41 °F
Dew Point 25 °F
Humidity 52%
Rainfall 0.00 in
Snow Depth Not available.
7:21 AM 5:14 PM
Waxing Crescent, 11% visible
METAR KMRN 030145Z AUTO 27003KT 10SM CLR 07/M04 A3022 RMK AO2 T00711037

10-Day Weather Forecast

Almanac

Astronomy

Dec. 02, 2016 Rise Set
Actual Time
Civil Twilight
Nautical Twilight
Astronomical Twilight
Moon
Length of Visible Light
Length of Day
Tomorrow will be .
, % of the Moon is Illuminated

Today's Extremes

State Highs State Lows

Community

WunderPhotos

Upload Photos

1,955,392 photos uploaded!

WunderBlog® & News

Nearby

Air Quality

  Air Quality AQ Index Pollutant
Not available.

Snow Depth

Station Depth Elevation

Earthquake Activity

City Distance Mag. Time & Date
Minimum magnitude displayed is 2.5.

Coastal Water Temperatures

Place Temperature

Stations

Nearby Weather Stations

Station Location Temp. Windchill Dew Point Humidity Wind Precip. Elev Updated Type
                   

Watches & Warnings

There are currently no watches in effect.